TGL84 LFLL-LFBO
Flight info
| Callsign | TGL84 |
|---|---|
| Flight time | N/A |
| Altitude | 29000 |
| Route | REPSI DCT LERGA DCT MINSO DCT NARAK |
| Aircraft | A359/H-SDE2E3GHIJ3J4J5LM1ORWXY/LB1D1 |
Departure
| Time | 2026-05-05 20:46 |
|---|---|
| Airport | Lyon Saint-Exupéry Airport (LFLL) |
Arrival
| Time | N/A |
|---|---|
| Airport | Toulouse-Blagnac Airport (LFBO) |
| Time | Latitude | Longitude | Altitude | Speed | Heading |
|---|---|---|---|---|---|
| 2026-05-05 20:17 | 45.71585 | 5.07909 | 803 ft | 0 kts | 310° |
| 2026-05-05 20:28 | 45.71582 | 5.07913 | 803 ft | 3 kts | 310° |
| 2026-05-05 20:28 | 45.71570 | 5.07934 | 803 ft | 3 kts | 310° |
| 2026-05-05 20:28 | 45.71558 | 5.07953 | 803 ft | 3 kts | 310° |
| 2026-05-05 20:29 | 45.71546 | 5.07972 | 803 ft | 3 kts | 320° |
| 2026-05-05 20:29 | 45.71538 | 5.07981 | 804 ft | 0 kts | 322° |
| 2026-05-05 20:29 | 45.71528 | 5.07994 | 805 ft | 3 kts | 294° |
| 2026-05-05 20:29 | 45.71524 | 5.08018 | 806 ft | 3 kts | 266° |
| 2026-05-05 20:30 | 45.71528 | 5.08043 | 807 ft | 3 kts | 229° |
| 2026-05-05 20:30 | 45.71535 | 5.08054 | 808 ft | 0 kts | 209° |
| 2026-05-05 20:33 | 45.71529 | 5.08048 | 808 ft | 2 kts | 210° |
| 2026-05-05 20:33 | 45.71524 | 5.08044 | 807 ft | 0 kts | 211° |
| 2026-05-05 20:35 | 45.71491 | 5.08028 | 807 ft | 7 kts | 179° |
| 2026-05-05 20:36 | 45.71459 | 5.08072 | 808 ft | 13 kts | 121° |
| 2026-05-05 20:36 | 45.71426 | 5.08208 | 809 ft | 16 kts | 106° |
| 2026-05-05 20:36 | 45.71408 | 5.08359 | 810 ft | 15 kts | 89° |
| 2026-05-05 20:36 | 45.71429 | 5.08486 | 813 ft | 10 kts | 48° |
| 2026-05-05 20:37 | 45.71506 | 5.08513 | 810 ft | 15 kts | 359° |
| 2026-05-05 20:37 | 45.71620 | 5.08503 | 809 ft | 18 kts | 355° |
| 2026-05-05 20:37 | 45.71753 | 5.08487 | 809 ft | 21 kts | 355° |
| 2026-05-05 20:37 | 45.71905 | 5.08467 | 808 ft | 23 kts | 354° |
| 2026-05-05 20:38 | 45.72074 | 5.08446 | 809 ft | 25 kts | 356° |
| 2026-05-05 20:38 | 45.72259 | 5.08425 | 806 ft | 28 kts | 355° |
| 2026-05-05 20:38 | 45.72406 | 5.08407 | 803 ft | 18 kts | 355° |
| 2026-05-05 20:38 | 45.72544 | 5.08390 | 802 ft | 21 kts | 355° |
| 2026-05-05 20:39 | 45.72709 | 5.08370 | 797 ft | 26 kts | 355° |
| 2026-05-05 20:39 | 45.72859 | 5.08351 | 796 ft | 21 kts | 355° |
| 2026-05-05 20:39 | 45.73016 | 5.08331 | 794 ft | 24 kts | 355° |
| 2026-05-05 20:39 | 45.73192 | 5.08312 | 791 ft | 27 kts | 355° |
| 2026-05-05 20:40 | 45.73390 | 5.08288 | 789 ft | 30 kts | 355° |
| 2026-05-05 20:40 | 45.73600 | 5.08261 | 786 ft | 24 kts | 354° |
| 2026-05-05 20:40 | 45.73707 | 5.08310 | 783 ft | 13 kts | 59° |
| 2026-05-05 20:40 | 45.73720 | 5.08439 | 784 ft | 14 kts | 96° |
| 2026-05-05 20:41 | 45.73697 | 5.08568 | 783 ft | 5 kts | 104° |
| 2026-05-05 20:41 | 45.73697 | 5.08569 | 783 ft | 0 kts | 104° |
| 2026-05-05 20:41 | 45.73696 | 5.08574 | 783 ft | 5 kts | 104° |
| 2026-05-05 20:41 | 45.73673 | 5.08686 | 783 ft | 12 kts | 122° |
| 2026-05-05 20:42 | 45.73617 | 5.08723 | 785 ft | 0 kts | 173° |
| 2026-05-05 20:45 | 45.73574 | 5.08729 | 787 ft | 30 kts | 173° |
| 2026-05-05 20:45 | 45.73100 | 5.08781 | 796 ft | 104 kts | 172° |
| 2026-05-05 20:45 | 45.72169 | 5.08899 | 811 ft | 163 kts | 175° |
| 2026-05-05 20:46 | 45.71024 | 5.09033 | 1650 ft | 156 kts | 175° |
| 2026-05-05 20:46 | 45.69901 | 5.09164 | 2238 ft | 173 kts | 176° |
| 2026-05-05 20:46 | 45.68615 | 5.09305 | 2639 ft | 198 kts | 177° |
| 2026-05-05 20:46 | 45.67153 | 5.09432 | 3099 ft | 222 kts | 179° |
| 2026-05-05 20:47 | 45.65568 | 5.09517 | 3847 ft | 233 kts | 180° |
| 2026-05-05 20:47 | 45.63930 | 5.09550 | 4706 ft | 237 kts | 183° |
| 2026-05-05 20:47 | 45.62357 | 5.08964 | 5636 ft | 234 kts | 210° |
| 2026-05-05 20:47 | 45.61184 | 5.07332 | 6393 ft | 248 kts | 241° |
| 2026-05-05 20:48 | 45.60554 | 5.04958 | 7030 ft | 262 kts | 252° |
| 2026-05-05 20:48 | 45.59970 | 5.02462 | 7960 ft | 267 kts | 249° |
| 2026-05-05 20:48 | 45.59308 | 5.00008 | 8980 ft | 270 kts | 246° |
| 2026-05-05 20:48 | 45.58576 | 4.97534 | 10013 ft | 273 kts | 245° |
| 2026-05-05 20:49 | 45.57781 | 4.94983 | 10654 ft | 291 kts | 244° |
| 2026-05-05 20:49 | 45.56903 | 4.92246 | 11079 ft | 315 kts | 244° |
| 2026-05-05 20:49 | 45.55995 | 4.89293 | 11560 ft | 335 kts | 249° |
| 2026-05-05 20:49 | 45.55497 | 4.86001 | 12335 ft | 345 kts | 262° |
| 2026-05-05 20:50 | 45.55292 | 4.82557 | 13211 ft | 351 kts | 264° |
| 2026-05-05 20:50 | 45.55119 | 4.79060 | 14051 ft | 356 kts | 264° |
| 2026-05-05 20:50 | 45.54941 | 4.75521 | 14856 ft | 360 kts | 264° |
| 2026-05-05 20:50 | 45.54753 | 4.71944 | 15680 ft | 363 kts | 263° |
| 2026-05-05 20:51 | 45.54560 | 4.68331 | 16494 ft | 368 kts | 263° |
| 2026-05-05 20:51 | 45.54357 | 4.64627 | 16955 ft | 383 kts | 263° |
| 2026-05-05 20:51 | 45.54143 | 4.60771 | 17428 ft | 395 kts | 263° |
| 2026-05-05 20:51 | 45.53924 | 4.56827 | 18145 ft | 401 kts | 263° |
| 2026-05-05 20:52 | 45.53701 | 4.52837 | 18829 ft | 406 kts | 263° |
| 2026-05-05 20:52 | 45.53473 | 4.48792 | 19523 ft | 412 kts | 262° |
| 2026-05-05 20:52 | 45.53241 | 4.44708 | 20233 ft | 417 kts | 262° |
| 2026-05-05 20:52 | 45.53005 | 4.40567 | 20941 ft | 421 kts | 262° |
| 2026-05-05 20:53 | 45.52764 | 4.36373 | 21659 ft | 426 kts | 262° |
| 2026-05-05 20:53 | 45.52464 | 4.32156 | 22377 ft | 429 kts | 258° |
| 2026-05-05 20:53 | 45.51762 | 4.28020 | 23081 ft | 429 kts | 248° |
| 2026-05-05 20:53 | 45.50508 | 4.24176 | 23792 ft | 428 kts | 237° |
| 2026-05-05 20:54 | 45.48910 | 4.20563 | 24298 ft | 433 kts | 233° |
| 2026-05-05 20:54 | 45.47184 | 4.17051 | 25091 ft | 430 kts | 231° |
| 2026-05-05 20:54 | 45.45433 | 4.13639 | 26116 ft | 423 kts | 231° |
| 2026-05-05 20:54 | 45.43700 | 4.10299 | 27161 ft | 416 kts | 230° |
| 2026-05-05 20:55 | 45.41994 | 4.07000 | 28214 ft | 410 kts | 230° |
| 2026-05-05 20:55 | 45.40322 | 4.03745 | 29086 ft | 408 kts | 230° |
| 2026-05-05 20:55 | 45.38641 | 4.00458 | 29463 ft | 415 kts | 231° |